sensor_id;sensor_type;location;lat;lon;timestamp;P1;durP1;ratioP1;P2;durP2;ratioP2
7302;SDS011;54309;48.150;11.540;2022-10-04T00:00:49;5.93;;;5.17;;
7302;SDS011;54309;48.150;11.540;2022-10-04T00:03:17;8.17;;;5.23;;
7302;SDS011;54309;48.150;11.540;2022-10-04T00:05:48;8.67;;;5.00;;
7302;SDS011;54309;48.150;11.540;2022-10-04T00:08:24;9.53;;;5.47;;
7302;SDS011;54309;48.150;11.540;2022-10-04T00:11:06;8.40;;;5.80;;
7302;SDS011;54309;48.150;11.540;2022-10-04T00:13:35;10.47;;;5.33;;
7302;SDS011;54309;48.150;11.540;2022-10-04T00:16:04;7.67;;;5.17;;
7302;SDS011;54309;48.150;11.540;2022-10-04T00:18:37;8.93;;;4.40;;
7302;SDS011;54309;48.150;11.540;2022-10-04T00:21:04;7.07;;;4.93;;
7302;SDS011;54309;48.150;11.540;2022-10-04T00:23:42;10.50;;;5.50;;
7302;SDS011;54309;48.150;11.540;2022-10-04T00:26:12;9.43;;;5.63;;
7302;SDS011;54309;48.150;11.540;2022-10-04T00:28:43;10.10;;;5.80;;
7302;SDS011;54309;48.150;11.540;2022-10-04T00:31:18;8.70;;;5.67;;
7302;SDS011;54309;48.150;11.540;2022-10-04T00:33:48;8.57;;;4.60;;
7302;SDS011;54309;48.150;11.540;2022-10-04T00:36:36;7.10;;;4.87;;
7302;SDS011;54309;48.150;11.540;2022-10-04T00:39:22;7.03;;;4.67;;
7302;SDS011;54309;48.150;11.540;2022-10-04T00:41:56;7.90;;;5.10;;
7302;SDS011;54309;48.150;11.540;2022-10-04T00:44:27;7.77;;;4.90;;
7302;SDS011;54309;48.150;11.540;2022-10-04T00:46:57;9.70;;;5.47;;
7302;SDS011;54309;48.150;11.540;2022-10-04T00:49:26;11.30;;;5.33;;
7302;SDS011;54309;48.150;11.540;2022-10-04T00:51:56;7.63;;;5.10;;
7302;SDS011;54309;48.150;11.540;2022-10-04T00:54:26;6.40;;;4.60;;
7302;SDS011;54309;48.150;11.540;2022-10-04T00:56:56;5.43;;;4.70;;
7302;SDS011;54309;48.150;11.540;2022-10-04T00:59:30;11.43;;;4.60;;
7302;SDS011;54309;48.150;11.540;2022-10-04T01:02:00;11.53;;;4.93;;
7302;SDS011;54309;48.150;11.540;2022-10-04T01:04:31;9.53;;;5.50;;
7302;SDS011;54309;48.150;11.540;2022-10-04T01:07:00;9.97;;;4.60;;
7302;SDS011;54309;48.150;11.540;2022-10-04T01:09:28;6.80;;;4.63;;
7302;SDS011;54309;48.150;11.540;2022-10-04T01:11:57;5.27;;;4.43;;
7302;SDS011;54309;48.150;11.540;2022-10-04T01:14:28;6.30;;;4.23;;
7302;SDS011;54309;48.150;11.540;2022-10-04T01:16:58;6.60;;;4.23;;
7302;SDS011;54309;48.150;11.540;2022-10-04T01:19:27;6.53;;;3.93;;
7302;SDS011;54309;48.150;11.540;2022-10-04T01:24:38;7.10;;;4.63;;
7302;SDS011;54309;48.150;11.540;2022-10-04T01:27:30;9.13;;;4.73;;
7302;SDS011;54309;48.150;11.540;2022-10-04T01:29:57;6.77;;;4.60;;
7302;SDS011;54309;48.150;11.540;2022-10-04T01:32:25;11.03;;;5.27;;
7302;SDS011;54309;48.150;11.540;2022-10-04T01:34:54;7.73;;;4.90;;
7302;SDS011;54309;48.150;11.540;2022-10-04T01:37:21;7.27;;;4.57;;
7302;SDS011;54309;48.150;11.540;2022-10-04T01:39:50;7.30;;;4.83;;
7302;SDS011;54309;48.150;11.540;2022-10-04T01:42:19;8.50;;;4.47;;
7302;SDS011;54309;48.150;11.540;2022-10-04T01:44:48;10.40;;;5.30;;
7302;SDS011;54309;48.150;11.540;2022-10-04T01:47:18;6.97;;;4.23;;
7302;SDS011;54309;48.150;11.540;2022-10-04T01:49:47;8.43;;;5.30;;
7302;SDS011;54309;48.150;11.540;2022-10-04T01:52:17;8.10;;;5.13;;
7302;SDS011;54309;48.150;11.540;2022-10-04T01:54:47;9.27;;;5.20;;
7302;SDS011;54309;48.150;11.540;2022-10-04T01:57:17;7.70;;;4.53;;
7302;SDS011;54309;48.150;11.540;2022-10-04T01:59:49;8.87;;;4.97;;
7302;SDS011;54309;48.150;11.540;2022-10-04T02:02:18;8.97;;;4.60;;
7302;SDS011;54309;48.150;11.540;2022-10-04T02:04:49;7.23;;;4.80;;
7302;SDS011;54309;48.150;11.540;2022-10-04T02:07:18;7.63;;;5.17;;
7302;SDS011;54309;48.150;11.540;2022-10-04T02:09:46;6.83;;;4.20;;
7302;SDS011;54309;48.150;11.540;2022-10-04T02:12:14;8.27;;;4.83;;
7302;SDS011;54309;48.150;11.540;2022-10-04T02:14:45;6.93;;;4.47;;
7302;SDS011;54309;48.150;11.540;2022-10-04T02:17:17;7.77;;;5.40;;
7302;SDS011;54309;48.150;11.540;2022-10-04T02:19:45;8.90;;;4.70;;
7302;SDS011;54309;48.150;11.540;2022-10-04T02:22:13;6.17;;;4.57;;
7302;SDS011;54309;48.150;11.540;2022-10-04T02:24:41;10.27;;;4.37;;
7302;SDS011;54309;48.150;11.540;2022-10-04T02:27:09;7.97;;;4.60;;
7302;SDS011;54309;48.150;11.540;2022-10-04T02:29:36;9.03;;;5.00;;
7302;SDS011;54309;48.150;11.540;2022-10-04T02:32:05;8.03;;;4.73;;
7302;SDS011;54309;48.150;11.540;2022-10-04T02:34:50;10.00;;;5.30;;
7302;SDS011;54309;48.150;11.540;2022-10-04T02:37:20;5.87;;;4.23;;
7302;SDS011;54309;48.150;11.540;2022-10-04T02:39:49;7.93;;;5.40;;
7302;SDS011;54309;48.150;11.540;2022-10-04T02:42:19;11.10;;;5.13;;
7302;SDS011;54309;48.150;11.540;2022-10-04T02:44:48;6.00;;;4.40;;
7302;SDS011;54309;48.150;11.540;2022-10-04T02:47:18;6.10;;;4.20;;
7302;SDS011;54309;48.150;11.540;2022-10-04T02:49:47;5.97;;;4.00;;
7302;SDS011;54309;48.150;11.540;2022-10-04T02:52:18;8.43;;;4.20;;
7302;SDS011;54309;48.150;11.540;2022-10-04T02:54:48;7.93;;;4.33;;
7302;SDS011;54309;48.150;11.540;2022-10-04T02:57:18;7.50;;;4.40;;
7302;SDS011;54309;48.150;11.540;2022-10-04T02:59:46;7.63;;;4.57;;
7302;SDS011;54309;48.150;11.540;2022-10-04T03:02:23;8.30;;;4.80;;
7302;SDS011;54309;48.150;11.540;2022-10-04T03:04:50;8.23;;;5.13;;
7302;SDS011;54309;48.150;11.540;2022-10-04T03:07:18;6.33;;;4.30;;
7302;SDS011;54309;48.150;11.540;2022-10-04T03:09:47;6.23;;;4.67;;
7302;SDS011;54309;48.150;11.540;2022-10-04T03:12:14;7.03;;;4.17;;
7302;SDS011;54309;48.150;11.540;2022-10-04T03:14:42;7.23;;;4.23;;
7302;SDS011;54309;48.150;11.540;2022-10-04T03:17:10;5.77;;;3.87;;
7302;SDS011;54309;48.150;11.540;2022-10-04T03:19:38;4.87;;;3.80;;
7302;SDS011;54309;48.150;11.540;2022-10-04T03:22:06;4.80;;;3.50;;
7302;SDS011;54309;48.150;11.540;2022-10-04T03:24:35;5.30;;;3.10;;
7302;SDS011;54309;48.150;11.540;2022-10-04T03:27:04;5.63;;;3.60;;
7302;SDS011;54309;48.150;11.540;2022-10-04T03:29:32;5.77;;;3.67;;
7302;SDS011;54309;48.150;11.540;2022-10-04T03:32:00;5.47;;;3.60;;
7302;SDS011;54309;48.150;11.540;2022-10-04T03:34:31;9.57;;;3.97;;
7302;SDS011;54309;48.150;11.540;2022-10-04T03:37:00;5.60;;;3.17;;
7302;SDS011;54309;48.150;11.540;2022-10-04T03:39:30;4.90;;;3.17;;
7302;SDS011;54309;48.150;11.540;2022-10-04T03:41:58;5.33;;;3.70;;
7302;SDS011;54309;48.150;11.540;2022-10-04T03:44:28;6.57;;;3.33;;
7302;SDS011;54309;48.150;11.540;2022-10-04T03:46:56;5.57;;;3.67;;
7302;SDS011;54309;48.150;11.540;2022-10-04T03:49:24;5.30;;;3.60;;
7302;SDS011;54309;48.150;11.540;2022-10-04T03:51:55;8.23;;;3.70;;
7302;SDS011;54309;48.150;11.540;2022-10-04T03:54:25;5.87;;;3.57;;
7302;SDS011;54309;48.150;11.540;2022-10-04T03:56:53;4.87;;;3.67;;
7302;SDS011;54309;48.150;11.540;2022-10-04T03:59:22;6.47;;;3.90;;
7302;SDS011;54309;48.150;11.540;2022-10-04T04:01:53;5.30;;;3.17;;
7302;SDS011;54309;48.150;11.540;2022-10-04T04:04:28;6.80;;;3.23;;
7302;SDS011;54309;48.150;11.540;2022-10-04T04:07:00;8.60;;;3.60;;
7302;SDS011;54309;48.150;11.540;2022-10-04T04:09:34;5.67;;;3.40;;
7302;SDS011;54309;48.150;11.540;2022-10-04T04:12:03;4.40;;;3.23;;
7302;SDS011;54309;48.150;11.540;2022-10-04T04:14:32;7.27;;;3.50;;
7302;SDS011;54309;48.150;11.540;2022-10-04T04:17:17;5.70;;;3.97;;
7302;SDS011;54309;48.150;11.540;2022-10-04T04:19:44;5.33;;;3.80;;
7302;SDS011;54309;48.150;11.540;2022-10-04T04:22:13;3.87;;;3.13;;
7302;SDS011;54309;48.150;11.540;2022-10-04T04:24:43;4.57;;;3.73;;
7302;SDS011;54309;48.150;11.540;2022-10-04T04:27:11;4.57;;;2.93;;
7302;SDS011;54309;48.150;11.540;2022-10-04T04:29:42;3.93;;;3.10;;
7302;SDS011;54309;48.150;11.540;2022-10-04T04:32:12;9.83;;;4.00;;
7302;SDS011;54309;48.150;11.540;2022-10-04T04:34:48;5.07;;;3.30;;
7302;SDS011;54309;48.150;11.540;2022-10-04T04:37:17;4.80;;;3.30;;
7302;SDS011;54309;48.150;11.540;2022-10-04T04:39:47;5.20;;;3.20;;
7302;SDS011;54309;48.150;11.540;2022-10-04T04:42:19;6.10;;;4.03;;
7302;SDS011;54309;48.150;11.540;2022-10-04T04:44:48;7.90;;;3.77;;
7302;SDS011;54309;48.150;11.540;2022-10-04T04:47:21;6.60;;;3.77;;
7302;SDS011;54309;48.150;11.540;2022-10-04T04:49:51;6.63;;;3.80;;
7302;SDS011;54309;48.150;11.540;2022-10-04T04:52:19;6.87;;;3.43;;
7302;SDS011;54309;48.150;11.540;2022-10-04T04:54:51;5.97;;;3.60;;
7302;SDS011;54309;48.150;11.540;2022-10-04T04:57:18;6.10;;;3.50;;
7302;SDS011;54309;48.150;11.540;2022-10-04T04:59:46;7.53;;;4.10;;
7302;SDS011;54309;48.150;11.540;2022-10-04T05:02:27;5.43;;;3.30;;
7302;SDS011;54309;48.150;11.540;2022-10-04T05:05:14;6.17;;;3.60;;
7302;SDS011;54309;48.150;11.540;2022-10-04T05:07:41;6.77;;;3.77;;
7302;SDS011;54309;48.150;11.540;2022-10-04T05:10:29;9.97;;;4.07;;
7302;SDS011;54309;48.150;11.540;2022-10-04T05:12:57;9.83;;;3.90;;
7302;SDS011;54309;48.150;11.540;2022-10-04T05:15:25;9.50;;;6.10;;
7302;SDS011;54309;48.150;11.540;2022-10-04T05:17:52;6.50;;;4.93;;
7302;SDS011;54309;48.150;11.540;2022-10-04T05:20:20;7.43;;;4.57;;
7302;SDS011;54309;48.150;11.540;2022-10-04T05:22:47;7.47;;;4.20;;
7302;SDS011;54309;48.150;11.540;2022-10-04T05:25:17;7.70;;;4.20;;
7302;SDS011;54309;48.150;11.540;2022-10-04T05:27:49;7.37;;;4.23;;
7302;SDS011;54309;48.150;11.540;2022-10-04T05:30:21;9.13;;;4.80;;
7302;SDS011;54309;48.150;11.540;2022-10-04T05:32:53;11.73;;;4.37;;
7302;SDS011;54309;48.150;11.540;2022-10-04T05:35:24;5.77;;;3.67;;
7302;SDS011;54309;48.150;11.540;2022-10-04T05:37:54;4.77;;;3.60;;
7302;SDS011;54309;48.150;11.540;2022-10-04T05:40:27;7.83;;;3.63;;
7302;SDS011;54309;48.150;11.540;2022-10-04T05:42:57;5.97;;;3.67;;
7302;SDS011;54309;48.150;11.540;2022-10-04T05:45:25;7.90;;;4.20;;
7302;SDS011;54309;48.150;11.540;2022-10-04T05:47:53;6.63;;;4.10;;
7302;SDS011;54309;48.150;11.540;2022-10-04T05:50:22;5.97;;;3.63;;
7302;SDS011;54309;48.150;11.540;2022-10-04T05:52:52;9.73;;;4.30;;
7302;SDS011;54309;48.150;11.540;2022-10-04T05:55:21;6.83;;;4.17;;
7302;SDS011;54309;48.150;11.540;2022-10-04T05:58:06;9.87;;;4.60;;
7302;SDS011;54309;48.150;11.540;2022-10-04T06:00:44;9.13;;;4.30;;
7302;SDS011;54309;48.150;11.540;2022-10-04T06:03:19;7.43;;;4.40;;
7302;SDS011;54309;48.150;11.540;2022-10-04T06:05:51;5.90;;;4.63;;
7302;SDS011;54309;48.150;11.540;2022-10-04T06:08:23;7.07;;;4.43;;
7302;SDS011;54309;48.150;11.540;2022-10-04T06:14:07;7.47;;;4.40;;
7302;SDS011;54309;48.150;11.540;2022-10-04T06:16:41;11.17;;;4.40;;
7302;SDS011;54309;48.150;11.540;2022-10-04T06:22:06;6.77;;;4.40;;
7302;SDS011;54309;48.150;11.540;2022-10-04T06:24:38;10.83;;;5.00;;
7302;SDS011;54309;48.150;11.540;2022-10-04T06:27:08;7.00;;;4.53;;
7302;SDS011;54309;48.150;11.540;2022-10-04T06:29:38;8.40;;;4.30;;
7302;SDS011;54309;48.150;11.540;2022-10-04T06:32:14;7.13;;;4.50;;
7302;SDS011;54309;48.150;11.540;2022-10-04T06:34:56;5.10;;;4.60;;
7302;SDS011;54309;48.150;11.540;2022-10-04T06:37:30;5.27;;;4.77;;
7302;SDS011;54309;48.150;11.540;2022-10-04T06:40:11;7.33;;;5.03;;
7302;SDS011;54309;48.150;11.540;2022-10-04T06:45:39;7.80;;;4.63;;
7302;SDS011;54309;48.150;11.540;2022-10-04T06:48:12;11.03;;;6.23;;
7302;SDS011;54309;48.150;11.540;2022-10-04T06:50:45;10.60;;;5.60;;
7302;SDS011;54309;48.150;11.540;2022-10-04T06:53:23;9.07;;;5.10;;
7302;SDS011;54309;48.150;11.540;2022-10-04T06:56:01;6.43;;;5.23;;
7302;SDS011;54309;48.150;11.540;2022-10-04T06:58:50;6.33;;;5.00;;
7302;SDS011;54309;48.150;11.540;2022-10-04T07:01:27;9.67;;;5.83;;
7302;SDS011;54309;48.150;11.540;2022-10-04T07:03:56;6.57;;;5.43;;
7302;SDS011;54309;48.150;11.540;2022-10-04T07:06:26;6.17;;;5.43;;
7302;SDS011;54309;48.150;11.540;2022-10-04T07:08:56;6.87;;;5.17;;
7302;SDS011;54309;48.150;11.540;2022-10-04T07:11:27;6.60;;;5.90;;
7302;SDS011;54309;48.150;11.540;2022-10-04T07:13:58;7.03;;;6.33;;
7302;SDS011;54309;48.150;11.540;2022-10-04T07:16:30;6.33;;;5.53;;
7302;SDS011;54309;48.150;11.540;2022-10-04T07:18:59;7.90;;;6.33;;
7302;SDS011;54309;48.150;11.540;2022-10-04T07:21:32;6.53;;;5.93;;
7302;SDS011;54309;48.150;11.540;2022-10-04T07:24:01;6.47;;;5.97;;
7302;SDS011;54309;48.150;11.540;2022-10-04T07:26:32;8.77;;;6.27;;
7302;SDS011;54309;48.150;11.540;2022-10-04T07:29:00;10.10;;;6.60;;
7302;SDS011;54309;48.150;11.540;2022-10-04T07:31:49;6.90;;;6.20;;
7302;SDS011;54309;48.150;11.540;2022-10-04T07:34:19;9.30;;;6.10;;
7302;SDS011;54309;48.150;11.540;2022-10-04T07:36:49;11.20;;;8.27;;
7302;SDS011;54309;48.150;11.540;2022-10-04T07:39:17;7.27;;;6.10;;
7302;SDS011;54309;48.150;11.540;2022-10-04T07:41:48;9.67;;;6.90;;
7302;SDS011;54309;48.150;11.540;2022-10-04T07:44:18;7.07;;;6.43;;
7302;SDS011;54309;48.150;11.540;2022-10-04T07:46:51;6.73;;;6.23;;
7302;SDS011;54309;48.150;11.540;2022-10-04T07:49:20;6.53;;;5.90;;
7302;SDS011;54309;48.150;11.540;2022-10-04T07:52:01;7.17;;;6.53;;
7302;SDS011;54309;48.150;11.540;2022-10-04T07:54:31;9.03;;;6.83;;
7302;SDS011;54309;48.150;11.540;2022-10-04T07:57:00;8.93;;;6.80;;
7302;SDS011;54309;48.150;11.540;2022-10-04T07:59:34;7.20;;;6.70;;
7302;SDS011;54309;48.150;11.540;2022-10-04T08:02:11;6.80;;;6.27;;
7302;SDS011;54309;48.150;11.540;2022-10-04T08:04:44;7.23;;;6.53;;
7302;SDS011;54309;48.150;11.540;2022-10-04T08:07:16;10.97;;;6.93;;
7302;SDS011;54309;48.150;11.540;2022-10-04T08:09:48;7.67;;;6.60;;
7302;SDS011;54309;48.150;11.540;2022-10-04T08:12:19;7.27;;;6.63;;
7302;SDS011;54309;48.150;11.540;2022-10-04T08:14:54;7.00;;;6.30;;
7302;SDS011;54309;48.150;11.540;2022-10-04T08:17:27;9.10;;;6.73;;
7302;SDS011;54309;48.150;11.540;2022-10-04T08:20:00;6.77;;;6.17;;
7302;SDS011;54309;48.150;11.540;2022-10-04T08:22:33;7.60;;;6.80;;
7302;SDS011;54309;48.150;11.540;2022-10-04T08:25:05;7.50;;;6.80;;
7302;SDS011;54309;48.150;11.540;2022-10-04T08:27:45;7.70;;;6.90;;
7302;SDS011;54309;48.150;11.540;2022-10-04T08:30:29;7.57;;;6.87;;
7302;SDS011;54309;48.150;11.540;2022-10-04T08:33:08;7.47;;;6.87;;
7302;SDS011;54309;48.150;11.540;2022-10-04T08:35:38;7.43;;;6.77;;
7302;SDS011;54309;48.150;11.540;2022-10-04T08:38:12;9.20;;;7.40;;
7302;SDS011;54309;48.150;11.540;2022-10-04T08:40:52;7.60;;;6.90;;
7302;SDS011;54309;48.150;11.540;2022-10-04T08:51:50;8.13;;;7.37;;
7302;SDS011;54309;48.150;11.540;2022-10-04T08:54:38;8.20;;;7.03;;
7302;SDS011;54309;48.150;11.540;2022-10-04T09:00:11;7.70;;;7.07;;
7302;SDS011;54309;48.150;11.540;2022-10-04T09:14:08;8.23;;;7.40;;
7302;SDS011;54309;48.150;11.540;2022-10-04T09:16:43;7.60;;;7.00;;
7302;SDS011;54309;48.150;11.540;2022-10-04T09:19:18;7.20;;;6.70;;
7302;SDS011;54309;48.150;11.540;2022-10-04T09:21:57;7.57;;;6.97;;
7302;SDS011;54309;48.150;11.540;2022-10-04T09:24:37;7.27;;;6.57;;
7302;SDS011;54309;48.150;11.540;2022-10-04T09:27:16;7.37;;;6.80;;
7302;SDS011;54309;48.150;11.540;2022-10-04T09:29:59;7.57;;;7.07;;
7302;SDS011;54309;48.150;11.540;2022-10-04T09:35:24;8.83;;;7.00;;
7302;SDS011;54309;48.150;11.540;2022-10-04T09:37:58;10.33;;;7.00;;
7302;SDS011;54309;48.150;11.540;2022-10-04T09:40:33;7.03;;;6.47;;
7302;SDS011;54309;48.150;11.540;2022-10-04T09:43:07;6.67;;;6.20;;
7302;SDS011;54309;48.150;11.540;2022-10-04T09:48:27;6.60;;;6.10;;
7302;SDS011;54309;48.150;11.540;2022-10-04T09:53:45;9.60;;;6.87;;
7302;SDS011;54309;48.150;11.540;2022-10-04T09:56:32;8.40;;;7.50;;
7302;SDS011;54309;48.150;11.540;2022-10-04T09:59:08;7.47;;;6.77;;
7302;SDS011;54309;48.150;11.540;2022-10-04T10:01:45;7.40;;;6.90;;
7302;SDS011;54309;48.150;11.540;2022-10-04T10:04:29;7.43;;;6.80;;
7302;SDS011;54309;48.150;11.540;2022-10-04T10:07:12;7.30;;;6.70;;
7302;SDS011;54309;48.150;11.540;2022-10-04T10:09:43;7.50;;;6.77;;
7302;SDS011;54309;48.150;11.540;2022-10-04T10:12:47;6.63;;;6.10;;
7302;SDS011;54309;48.150;11.540;2022-10-04T10:15:49;6.93;;;6.40;;
7302;SDS011;54309;48.150;11.540;2022-10-04T10:18:24;7.03;;;6.53;;
7302;SDS011;54309;48.150;11.540;2022-10-04T10:21:05;7.37;;;6.67;;
7302;SDS011;54309;48.150;11.540;2022-10-04T10:26:23;7.00;;;6.30;;
7302;SDS011;54309;48.150;11.540;2022-10-04T10:29:04;6.90;;;6.50;;
7302;SDS011;54309;48.150;11.540;2022-10-04T10:31:41;7.60;;;7.00;;
7302;SDS011;54309;48.150;11.540;2022-10-04T10:37:08;25.17;;;19.57;;
7302;SDS011;54309;48.150;11.540;2022-10-04T10:39:47;7.10;;;6.60;;
7302;SDS011;54309;48.150;11.540;2022-10-04T10:42:21;7.30;;;6.70;;
7302;SDS011;54309;48.150;11.540;2022-10-04T10:45:03;7.30;;;6.90;;
7302;SDS011;54309;48.150;11.540;2022-10-04T10:47:35;7.00;;;6.60;;
7302;SDS011;54309;48.150;11.540;2022-10-04T10:50:13;7.20;;;6.70;;
7302;SDS011;54309;48.150;11.540;2022-10-04T10:55:47;7.03;;;6.60;;
7302;SDS011;54309;48.150;11.540;2022-10-04T10:58:28;7.50;;;6.93;;
7302;SDS011;54309;48.150;11.540;2022-10-04T11:01:09;8.05;;;7.45;;
7302;SDS011;54309;48.150;11.540;2022-10-04T11:03:47;8.13;;;7.38;;
7302;SDS011;54309;48.150;11.540;2022-10-04T11:06:29;8.30;;;7.70;;
7302;SDS011;54309;48.150;11.540;2022-10-04T11:14:51;8.15;;;7.63;;
7302;SDS011;54309;48.150;11.540;2022-10-04T11:17:29;7.63;;;7.03;;
7302;SDS011;54309;48.150;11.540;2022-10-04T11:20:06;7.30;;;6.90;;
7302;SDS011;54309;48.150;11.540;2022-10-04T11:25:37;7.63;;;6.90;;
7302;SDS011;54309;48.150;11.540;2022-10-04T11:28:12;7.45;;;6.95;;
7302;SDS011;54309;48.150;11.540;2022-10-04T11:31:03;7.72;;;7.13;;
7302;SDS011;54309;48.150;11.540;2022-10-04T11:33:41;8.38;;;7.30;;
7302;SDS011;54309;48.150;11.540;2022-10-04T11:36:26;7.82;;;7.13;;
7302;SDS011;54309;48.150;11.540;2022-10-04T11:38:59;7.78;;;7.22;;
7302;SDS011;54309;48.150;11.540;2022-10-04T11:41:31;7.53;;;7.00;;
7302;SDS011;54309;48.150;11.540;2022-10-04T11:44:11;7.47;;;7.07;;
7302;SDS011;54309;48.150;11.540;2022-10-04T11:46:45;7.95;;;7.55;;
7302;SDS011;54309;48.150;11.540;2022-10-04T11:49:19;7.78;;;7.32;;
7302;SDS011;54309;48.150;11.540;2022-10-04T11:57:25;7.90;;;7.22;;
7302;SDS011;54309;48.150;11.540;2022-10-04T11:59:56;7.07;;;6.57;;
7302;SDS011;54309;48.150;11.540;2022-10-04T12:08:03;7.50;;;7.00;;
7302;SDS011;54309;48.150;11.540;2022-10-04T12:10:33;8.90;;;6.78;;
7302;SDS011;54309;48.150;11.540;2022-10-04T12:13:17;86.65;;;15.15;;
7302;SDS011;54309;48.150;11.540;2022-10-04T12:15:59;14.77;;;8.15;;
7302;SDS011;54309;48.150;11.540;2022-10-04T12:18:38;10.68;;;9.00;;
7302;SDS011;54309;48.150;11.540;2022-10-04T12:21:14;9.02;;;7.30;;
7302;SDS011;54309;48.150;11.540;2022-10-04T12:23:53;8.90;;;8.00;;
7302;SDS011;54309;48.150;11.540;2022-10-04T12:26:36;8.98;;;7.78;;
7302;SDS011;54309;48.150;11.540;2022-10-04T12:29:11;8.18;;;7.38;;
7302;SDS011;54309;48.150;11.540;2022-10-04T12:31:45;8.15;;;7.70;;
7302;SDS011;54309;48.150;11.540;2022-10-04T12:34:17;9.05;;;7.60;;
7302;SDS011;54309;48.150;11.540;2022-10-04T12:39:40;7.85;;;7.50;;
7302;SDS011;54309;48.150;11.540;2022-10-04T12:42:16;7.65;;;7.13;;
7302;SDS011;54309;48.150;11.540;2022-10-04T12:44:55;7.85;;;7.20;;
7302;SDS011;54309;48.150;11.540;2022-10-04T12:47:35;8.02;;;7.45;;
7302;SDS011;54309;48.150;11.540;2022-10-04T12:50:06;7.60;;;7.20;;
7302;SDS011;54309;48.150;11.540;2022-10-04T12:52:40;7.55;;;7.05;;
7302;SDS011;54309;48.150;11.540;2022-10-04T12:55:16;7.57;;;7.07;;
7302;SDS011;54309;48.150;11.540;2022-10-04T12:57:47;7.75;;;7.10;;
7302;SDS011;54309;48.150;11.540;2022-10-04T13:00:17;7.03;;;6.72;;
7302;SDS011;54309;48.150;11.540;2022-10-04T13:05:36;7.15;;;6.72;;
7302;SDS011;54309;48.150;11.540;2022-10-04T13:08:23;7.32;;;6.80;;
7302;SDS011;54309;48.150;11.540;2022-10-04T13:13:53;8.00;;;7.40;;
7302;SDS011;54309;48.150;11.540;2022-10-04T13:16:26;7.72;;;7.30;;
7302;SDS011;54309;48.150;11.540;2022-10-04T13:19:03;7.22;;;6.90;;
7302;SDS011;54309;48.150;11.540;2022-10-04T13:24:23;7.75;;;7.25;;
7302;SDS011;54309;48.150;11.540;2022-10-04T13:26:53;7.72;;;7.22;;
7302;SDS011;54309;48.150;11.540;2022-10-04T13:29:23;7.93;;;7.40;;
7302;SDS011;54309;48.150;11.540;2022-10-04T13:31:54;7.55;;;7.15;;
7302;SDS011;54309;48.150;11.540;2022-10-04T13:34:24;7.20;;;6.72;;
7302;SDS011;54309;48.150;11.540;2022-10-04T13:37:01;7.47;;;7.07;;
7302;SDS011;54309;48.150;11.540;2022-10-04T13:39:39;8.20;;;7.50;;
7302;SDS011;54309;48.150;11.540;2022-10-04T13:42:23;9.07;;;8.52;;
7302;SDS011;54309;48.150;11.540;2022-10-04T13:44:59;7.88;;;7.38;;
7302;SDS011;54309;48.150;11.540;2022-10-04T13:47:33;9.93;;;7.45;;
7302;SDS011;54309;48.150;11.540;2022-10-04T13:50:08;7.70;;;7.30;;
7302;SDS011;54309;48.150;11.540;2022-10-04T13:52:43;7.55;;;7.07;;
7302;SDS011;54309;48.150;11.540;2022-10-04T13:55:33;7.82;;;7.20;;
7302;SDS011;54309;48.150;11.540;2022-10-04T13:58:25;7.68;;;7.07;;
7302;SDS011;54309;48.150;11.540;2022-10-04T14:01:02;7.10;;;6.80;;
7302;SDS011;54309;48.150;11.540;2022-10-04T14:03:37;7.05;;;6.60;;
7302;SDS011;54309;48.150;11.540;2022-10-04T14:17:27;6.32;;;6.03;;
7302;SDS011;54309;48.150;11.540;2022-10-04T14:23:06;7.47;;;6.97;;
7302;SDS011;54309;48.150;11.540;2022-10-04T14:25:44;7.30;;;6.80;;
7302;SDS011;54309;48.150;11.540;2022-10-04T14:28:31;7.22;;;6.72;;
7302;SDS011;54309;48.150;11.540;2022-10-04T14:31:07;8.10;;;7.40;;
7302;SDS011;54309;48.150;11.540;2022-10-04T14:33:46;7.07;;;6.65;;
7302;SDS011;54309;48.150;11.540;2022-10-04T14:39:31;7.65;;;6.90;;
7302;SDS011;54309;48.150;11.540;2022-10-04T14:42:10;6.40;;;6.00;;
7302;SDS011;54309;48.150;11.540;2022-10-04T14:47:40;6.75;;;6.28;;
7302;SDS011;54309;48.150;11.540;2022-10-04T14:50:21;6.97;;;6.47;;
7302;SDS011;54309;48.150;11.540;2022-10-04T14:52:53;10.57;;;9.68;;
7302;SDS011;54309;48.150;11.540;2022-10-04T14:55:35;7.40;;;6.82;;
7302;SDS011;54309;48.150;11.540;2022-10-04T14:58:10;6.20;;;5.90;;
7302;SDS011;54309;48.150;11.540;2022-10-04T15:00:47;7.22;;;6.68;;
7302;SDS011;54309;48.150;11.540;2022-10-04T15:03:24;6.38;;;5.97;;
7302;SDS011;54309;48.150;11.540;2022-10-04T15:06:10;6.50;;;6.00;;
7302;SDS011;54309;48.150;11.540;2022-10-04T15:11:33;7.03;;;6.40;;
7302;SDS011;54309;48.150;11.540;2022-10-04T15:14:03;7.00;;;6.40;;
7302;SDS011;54309;48.150;11.540;2022-10-04T15:16:32;6.75;;;6.18;;
7302;SDS011;54309;48.150;11.540;2022-10-04T15:19:03;5.97;;;5.68;;
7302;SDS011;54309;48.150;11.540;2022-10-04T15:21:37;6.55;;;5.90;;
7302;SDS011;54309;48.150;11.540;2022-10-04T15:27:01;5.88;;;5.57;;
7302;SDS011;54309;48.150;11.540;2022-10-04T15:29:42;6.13;;;5.72;;
7302;SDS011;54309;48.150;11.540;2022-10-04T15:32:14;6.10;;;5.60;;
7302;SDS011;54309;48.150;11.540;2022-10-04T15:34:45;5.60;;;5.30;;
7302;SDS011;54309;48.150;11.540;2022-10-04T15:37:19;5.70;;;5.28;;
7302;SDS011;54309;48.150;11.540;2022-10-04T15:42:55;5.65;;;5.25;;
7302;SDS011;54309;48.150;11.540;2022-10-04T15:45:33;6.32;;;5.82;;
7302;SDS011;54309;48.150;11.540;2022-10-04T15:48:24;5.93;;;5.60;;
7302;SDS011;54309;48.150;11.540;2022-10-04T15:50:59;5.65;;;5.35;;
7302;SDS011;54309;48.150;11.540;2022-10-04T15:53:41;5.60;;;5.20;;
7302;SDS011;54309;48.150;11.540;2022-10-04T15:56:11;6.50;;;5.55;;
7302;SDS011;54309;48.150;11.540;2022-10-04T15:58:44;5.78;;;5.28;;
7302;SDS011;54309;48.150;11.540;2022-10-04T16:01:20;5.90;;;5.40;;
7302;SDS011;54309;48.150;11.540;2022-10-04T16:03:54;5.13;;;4.93;;
7302;SDS011;54309;48.150;11.540;2022-10-04T16:06:22;5.20;;;5.00;;
7302;SDS011;54309;48.150;11.540;2022-10-04T16:11:31;5.88;;;5.47;;
7302;SDS011;54309;48.150;11.540;2022-10-04T16:14:04;5.97;;;5.53;;
7302;SDS011;54309;48.150;11.540;2022-10-04T16:22:10;5.97;;;5.47;;
7302;SDS011;54309;48.150;11.540;2022-10-04T16:24:41;6.20;;;5.80;;
7302;SDS011;54309;48.150;11.540;2022-10-04T16:29:59;5.80;;;5.40;;
7302;SDS011;54309;48.150;11.540;2022-10-04T16:32:30;8.03;;;5.80;;
7302;SDS011;54309;48.150;11.540;2022-10-04T16:35:04;6.03;;;5.63;;
7302;SDS011;54309;48.150;11.540;2022-10-04T16:37:34;6.07;;;5.67;;
7302;SDS011;54309;48.150;11.540;2022-10-04T16:40:15;6.37;;;5.83;;
7302;SDS011;54309;48.150;11.540;2022-10-04T16:42:47;7.00;;;6.30;;
7302;SDS011;54309;48.150;11.540;2022-10-04T16:45:31;6.67;;;6.10;;
7302;SDS011;54309;48.150;11.540;2022-10-04T16:48:01;6.13;;;5.73;;
7302;SDS011;54309;48.150;11.540;2022-10-04T16:50:47;6.13;;;5.60;;
7302;SDS011;54309;48.150;11.540;2022-10-04T16:53:20;6.87;;;6.27;;
7302;SDS011;54309;48.150;11.540;2022-10-04T16:55:50;6.80;;;6.23;;
7302;SDS011;54309;48.150;11.540;2022-10-04T17:03:57;6.47;;;5.87;;
7302;SDS011;54309;48.150;11.540;2022-10-04T17:06:27;6.53;;;5.50;;
7302;SDS011;54309;48.150;11.540;2022-10-04T17:09:07;7.63;;;6.00;;
7302;SDS011;54309;48.150;11.540;2022-10-04T17:11:42;5.90;;;5.40;;
7302;SDS011;54309;48.150;11.540;2022-10-04T17:14:21;7.13;;;6.67;;
7302;SDS011;54309;48.150;11.540;2022-10-04T17:16:53;6.97;;;6.37;;
7302;SDS011;54309;48.150;11.540;2022-10-04T17:19:30;6.80;;;6.20;;
7302;SDS011;54309;48.150;11.540;2022-10-04T17:22:03;6.30;;;5.70;;
7302;SDS011;54309;48.150;11.540;2022-10-04T17:24:35;6.97;;;5.50;;
7302;SDS011;54309;48.150;11.540;2022-10-04T17:27:16;6.30;;;5.70;;
7302;SDS011;54309;48.150;11.540;2022-10-04T17:29:52;5.83;;;5.33;;
7302;SDS011;54309;48.150;11.540;2022-10-04T17:32:24;6.80;;;5.33;;